createdAt,value
2019-06-08T00:00:05.251Z,63.60
2019-06-08T00:02:33.436Z,61.22
2019-06-08T00:05:01.551Z,68.06
2019-06-08T00:07:29.676Z,59.03
2019-06-08T00:09:57.820Z,62.46
2019-06-08T00:12:27.078Z,59.65
2019-06-08T00:14:55.210Z,59.08
2019-06-08T00:17:35.705Z,65.16
2019-06-08T00:19:53.241Z,58.76
2019-06-08T00:22:21.935Z,60.80
2019-06-08T00:24:50.089Z,58.71
2019-06-08T00:27:20.212Z,66.14
2019-06-08T00:29:48.176Z,59.63
2019-06-08T00:32:16.349Z,66.23
2019-06-08T00:34:44.577Z,58.90
2019-06-08T00:37:12.711Z,62.43
2019-06-08T00:39:40.940Z,63.91
2019-06-08T00:42:09.181Z,64.18
2019-06-08T00:44:37.443Z,60.08
2019-06-08T00:47:05.675Z,68.37
2019-06-08T00:49:33.975Z,60.73
2019-06-08T00:52:02.181Z,64.34
2019-06-08T00:54:30.513Z,61.39
2019-06-08T00:56:58.791Z,60.82
2019-06-08T00:59:26.912Z,60.60
2019-06-08T01:01:55.021Z,66.26
2019-06-08T01:04:23.213Z,62.41
2019-06-08T01:06:51.369Z,62.52
2019-06-08T01:09:20.195Z,62.14
2019-06-08T01:11:48.526Z,68.07
2019-06-08T01:14:16.778Z,63.16
2019-06-08T01:16:45.222Z,62.69
2019-06-08T01:19:13.483Z,65.05
2019-06-08T01:21:41.629Z,66.82
2019-06-08T01:24:09.874Z,60.81
2019-06-08T01:26:38.318Z,64.36
2019-06-08T01:29:06.517Z,60.13
2019-06-08T01:31:34.732Z,61.14
2019-06-08T01:34:03.080Z,67.94
2019-06-08T01:36:31.333Z,67.87
2019-06-08T01:38:59.585Z,68.34
2019-06-08T01:41:27.866Z,66.80
2019-06-08T01:43:56.020Z,63.74
2019-06-08T01:46:24.179Z,67.66
2019-06-08T01:48:52.273Z,67.15
2019-06-08T01:51:20.656Z,63.83
2019-06-08T01:53:48.806Z,62.71
2019-06-08T01:56:17.040Z,62.89
2019-06-08T01:58:45.191Z,69.16
2019-06-08T02:01:13.431Z,61.39
2019-06-08T02:03:41.682Z,63.87
2019-06-08T02:06:09.771Z,66.99
2019-06-08T02:08:37.964Z,64.65
2019-06-08T02:11:06.386Z,66.49
2019-06-08T02:13:35.240Z,62.67
2019-06-08T02:16:03.565Z,68.14
2019-06-08T02:18:39.929Z,69.21
2019-06-08T02:21:01.544Z,66.53
2019-06-08T02:23:31.035Z,68.54
2019-06-08T02:25:59.421Z,66.89
2019-06-08T02:28:27.568Z,66.01
2019-06-08T02:30:55.846Z,65.11
2019-06-08T02:33:23.970Z,64.83
2019-06-08T02:35:52.140Z,62.25
2019-06-08T02:38:20.317Z,68.56
2019-06-08T02:40:48.486Z,67.30
2019-06-08T02:43:16.620Z,68.32
2019-06-08T02:45:44.832Z,66.21
2019-06-08T02:48:12.947Z,63.26
2019-06-08T02:50:57.278Z,63.50
2019-06-08T02:53:29.220Z,62.19
2019-06-08T02:55:57.186Z,66.85
2019-06-08T02:58:25.434Z,65.81
2019-06-08T03:00:55.347Z,63.12
2019-06-08T03:03:23.703Z,67.97
2019-06-08T03:05:52.264Z,60.81
2019-06-08T03:08:21.624Z,66.92
2019-06-08T03:10:54.098Z,67.67
2019-06-08T03:13:24.399Z,63.39
2019-06-08T03:15:51.901Z,63.44
2019-06-08T03:18:20.073Z,63.66
2019-06-08T03:20:48.409Z,66.40
2019-06-08T03:23:16.639Z,64.17
2019-06-08T03:25:52.632Z,66.67
2019-06-08T03:28:14.660Z,61.94
2019-06-08T03:30:52.333Z,63.61
2019-06-08T03:33:12.705Z,66.47
2019-06-08T03:35:52.582Z,64.57
2019-06-08T03:38:10.806Z,66.55
2019-06-08T03:40:40.567Z,64.89
2019-06-08T03:43:08.940Z,66.67
2019-06-08T03:45:38.244Z,65.86
2019-06-08T03:48:06.523Z,66.48
2019-06-08T03:50:35.534Z,65.01
2019-06-08T03:53:05.011Z,61.47
2019-06-08T03:55:33.208Z,61.10
2019-06-08T03:58:01.462Z,66.59
2019-06-08T04:00:29.827Z,66.48
2019-06-08T04:02:57.984Z,66.56
2019-06-08T04:05:26.112Z,61.33
2019-06-08T04:07:54.310Z,66.86
2019-06-08T04:10:22.492Z,65.25
2019-06-08T04:12:50.800Z,62.66
2019-06-08T04:15:18.945Z,62.72
2019-06-08T04:17:47.269Z,63.16
2019-06-08T04:20:16.121Z,65.55
2019-06-08T04:22:47.481Z,67.25
2019-06-08T04:25:15.859Z,61.58
2019-06-08T04:27:44.807Z,66.71
2019-06-08T04:30:15.579Z,63.14
2019-06-08T04:32:44.931Z,67.24
2019-06-08T04:35:13.298Z,67.46
2019-06-08T04:37:42.585Z,62.57
2019-06-08T04:40:12.041Z,63.28
2019-06-08T04:42:41.801Z,66.46
2019-06-08T04:45:10.430Z,61.87
2019-06-08T04:47:40.732Z,66.83
2019-06-08T04:50:21.439Z,63.36
2019-06-08T04:52:40.547Z,63.25
2019-06-08T04:55:08.662Z,65.60
2019-06-08T04:57:39.205Z,64.21
2019-06-08T05:00:12.062Z,63.43
2019-06-08T05:02:39.103Z,62.74
2019-06-08T05:05:07.771Z,65.03
2019-06-08T05:07:36.004Z,64.48
2019-06-08T05:10:05.079Z,65.49
2019-06-08T05:12:33.351Z,62.49
2019-06-08T05:15:01.411Z,64.64
2019-06-08T05:17:29.787Z,64.54
2019-06-08T05:19:57.994Z,62.48
2019-06-08T05:22:26.138Z,65.92
2019-06-08T05:24:54.507Z,63.57
2019-06-08T05:27:22.749Z,61.67
2019-06-08T05:29:50.970Z,62.95
2019-06-08T05:32:19.303Z,62.44
2019-06-08T05:34:47.686Z,61.81
2019-06-08T05:37:15.998Z,64.69
2019-06-08T05:39:44.176Z,64.71
2019-06-08T05:42:12.478Z,64.58
2019-06-08T05:44:41.612Z,64.39
2019-06-08T05:47:09.798Z,61.15
2019-06-08T05:49:37.956Z,64.46
2019-06-08T05:52:06.148Z,60.37
2019-06-08T05:54:34.406Z,62.45
2019-06-08T05:57:02.548Z,62.87
2019-06-08T05:59:30.728Z,63.01
2019-06-08T06:01:58.998Z,64.56
2019-06-08T06:04:27.178Z,60.49
2019-06-08T06:06:55.299Z,60.50
2019-06-08T06:09:23.515Z,63.25
2019-06-08T06:11:51.696Z,61.76
2019-06-08T06:14:19.856Z,60.99
2019-06-08T06:16:49.124Z,60.14
2019-06-08T06:19:17.363Z,59.05
2019-06-08T06:21:45.486Z,60.23
2019-06-08T06:24:13.616Z,59.16
2019-06-08T06:26:41.854Z,59.93
2019-06-08T06:29:10.131Z,59.17
2019-06-08T06:31:38.416Z,59.32
2019-06-08T06:34:06.592Z,58.13
2019-06-08T06:36:34.699Z,58.88
2019-06-08T06:39:02.909Z,58.59
2019-06-08T06:41:31.090Z,56.21
2019-06-08T06:43:59.328Z,56.48
2019-06-08T06:46:27.504Z,56.44
2019-06-08T06:48:55.740Z,55.73
2019-06-08T06:51:26.690Z,55.44
2019-06-08T06:53:53.873Z,54.88
2019-06-08T06:56:21.976Z,53.56
2019-06-08T06:58:51.340Z,54.05
2019-06-08T07:01:19.762Z,55.19
2019-06-08T07:03:48.032Z,55.18
2019-06-08T07:06:16.101Z,53.12
2019-06-08T07:08:44.322Z,53.91
2019-06-08T07:11:12.468Z,55.19
2019-06-08T07:13:40.604Z,54.92
2019-06-08T07:16:18.406Z,54.64
2019-06-08T07:18:38.721Z,52.08
2019-06-08T07:21:07.351Z,51.43
2019-06-08T07:23:35.492Z,50.55
2019-06-08T07:26:03.655Z,50.55
2019-06-08T07:28:31.780Z,44.40
2019-06-08T07:30:59.955Z,48.98
2019-06-08T07:33:28.088Z,49.12
2019-06-08T07:35:56.285Z,49.88
2019-06-08T07:38:24.435Z,47.93
2019-06-08T07:40:53.831Z,45.42
2019-06-08T07:43:22.414Z,45.16
2019-06-08T07:45:51.857Z,46.67
2019-06-08T07:48:20.123Z,46.67
2019-06-08T07:50:48.455Z,47.00
2019-06-08T07:53:16.899Z,45.44
2019-06-08T07:55:45.585Z,44.05
2019-06-08T07:58:13.987Z,47.19
2019-06-08T08:00:42.313Z,40.73
2019-06-08T08:03:13.559Z,46.86
2019-06-08T08:05:41.728Z,43.37
2019-06-08T08:08:09.965Z,43.18
2019-06-08T08:10:38.164Z,43.57
2019-06-08T08:13:06.469Z,45.68
2019-06-08T08:15:34.664Z,42.80
2019-06-08T08:18:03.046Z,40.40
2019-06-08T08:20:31.186Z,44.61
2019-06-08T08:23:05.505Z,43.71
2019-06-08T08:25:29.422Z,38.53
2019-06-08T08:27:59.339Z,44.34
2019-06-08T08:30:28.451Z,42.84
2019-06-08T08:33:01.069Z,40.87
2019-06-08T08:35:28.038Z,42.60
2019-06-08T08:38:00.779Z,38.65
2019-06-08T08:40:28.186Z,42.95
2019-06-08T08:42:58.259Z,43.01
2019-06-08T08:45:27.630Z,43.94
2019-06-08T08:48:13.665Z,41.50
2019-06-08T08:50:28.180Z,43.03
2019-06-08T08:52:58.560Z,41.56
2019-06-08T08:55:27.858Z,37.69
2019-06-08T08:57:57.062Z,38.12
2019-06-08T09:00:24.743Z,41.47
2019-06-08T09:03:10.752Z,41.33
2019-06-08T09:05:22.904Z,41.11
2019-06-08T09:07:52.234Z,43.86
2019-06-08T09:10:21.037Z,43.93
2019-06-08T09:12:49.305Z,42.25
2019-06-08T09:15:19.244Z,40.54
2019-06-08T09:17:48.286Z,40.96
2019-06-08T09:20:19.162Z,44.69
2019-06-08T09:22:53.809Z,41.96
2019-06-08T09:25:18.227Z,43.69
2019-06-08T09:27:48.273Z,39.40
2019-06-08T09:30:18.297Z,44.07
2019-06-08T09:32:47.777Z,43.21
2019-06-08T09:35:18.665Z,40.53
2019-06-08T09:37:45.489Z,44.35
2019-06-08T09:40:13.742Z,43.80
2019-06-08T09:42:41.962Z,42.12
2019-06-08T09:45:10.638Z,42.44
2019-06-08T09:47:38.832Z,39.72
2019-06-08T09:50:09.262Z,43.02
2019-06-08T09:52:40.895Z,42.67
2019-06-08T09:55:08.991Z,41.90
2019-06-08T09:57:35.157Z,42.34
2019-06-08T10:00:14.505Z,41.73
2019-06-08T10:02:32.585Z,40.47
2019-06-08T10:05:02.721Z,43.40
2019-06-08T10:07:31.306Z,43.34
2019-06-08T10:10:02.528Z,42.65
2019-06-08T10:12:29.713Z,42.87
2019-06-08T10:14:58.804Z,40.31
2019-06-08T10:17:27.867Z,42.27
2019-06-08T10:19:59.254Z,41.09
2019-06-08T10:22:28.097Z,40.76
2019-06-08T10:24:58.040Z,41.51
2019-06-08T10:27:28.227Z,42.75
2019-06-08T10:29:58.642Z,43.35
2019-06-08T10:32:28.042Z,41.97
2019-06-08T10:34:58.656Z,40.64
2019-06-08T10:37:28.199Z,41.17
2019-06-08T10:39:58.674Z,40.50
2019-06-08T10:42:25.826Z,41.55
2019-06-08T10:44:54.001Z,41.33
2019-06-08T10:47:22.184Z,40.99
2019-06-08T10:49:50.381Z,41.22
2019-06-08T10:52:20.376Z,40.77
2019-06-08T10:54:48.537Z,41.48
2019-06-08T10:57:18.250Z,41.17
2019-06-08T10:59:48.625Z,41.70
2019-06-08T11:02:18.702Z,41.19
2019-06-08T11:04:48.296Z,41.35
2019-06-08T11:07:16.683Z,39.99
2019-06-08T11:09:44.868Z,41.47
2019-06-08T11:12:15.289Z,41.21
2019-06-08T11:14:42.903Z,40.31
2019-06-08T11:17:11.435Z,41.18
2019-06-08T11:19:40.090Z,41.68
2019-06-08T11:22:13.868Z,41.37
2019-06-08T11:24:38.825Z,39.53
2019-06-08T11:27:10.597Z,42.28
2019-06-08T11:29:38.389Z,39.90
2019-06-08T11:32:10.938Z,38.85
2019-06-08T11:34:37.692Z,41.68
2019-06-08T11:37:09.400Z,40.35
2019-06-08T11:39:38.046Z,38.86
2019-06-08T11:42:09.273Z,38.53
2019-06-08T11:44:38.766Z,42.57
2019-06-08T11:47:10.588Z,42.66
2019-06-08T11:49:36.577Z,41.97
2019-06-08T11:52:04.738Z,39.90
2019-06-08T11:54:37.389Z,40.06
2019-06-08T11:57:02.849Z,39.73
2019-06-08T11:59:32.790Z,39.59
2019-06-08T12:02:01.892Z,40.96
2019-06-08T12:04:30.204Z,40.99
2019-06-08T12:06:58.557Z,39.99
2019-06-08T12:09:28.682Z,40.03
2019-06-08T12:11:58.000Z,42.00
2019-06-08T12:14:25.771Z,37.17
2019-06-08T12:16:53.946Z,37.92
2019-06-08T12:19:22.218Z,39.36
2019-06-08T12:21:50.349Z,39.05
2019-06-08T12:24:18.607Z,38.61
2019-06-08T12:26:47.681Z,38.66
2019-06-08T12:29:16.691Z,38.10
2019-06-08T12:31:45.492Z,36.70
2019-06-08T12:34:13.678Z,37.41
2019-06-08T12:36:41.972Z,35.42
2019-06-08T12:39:10.180Z,37.07
2019-06-08T12:41:38.368Z,36.78
2019-06-08T12:44:09.332Z,35.24
2019-06-08T12:46:38.372Z,36.55
2019-06-08T12:49:05.568Z,35.23
2019-06-08T12:51:33.846Z,37.34
2019-06-08T12:54:02.104Z,35.59
2019-06-08T12:56:30.274Z,37.06
2019-06-08T12:58:58.553Z,36.74
2019-06-08T13:01:28.233Z,35.91
2019-06-08T13:03:58.168Z,35.94
2019-06-08T13:06:28.313Z,36.49
2019-06-08T13:08:57.808Z,36.37
2019-06-08T13:11:28.182Z,37.16
2019-06-08T13:13:56.002Z,36.38
2019-06-08T13:16:24.795Z,38.89
2019-06-08T13:18:53.166Z,37.21
2019-06-08T13:21:33.263Z,36.33
2019-06-08T13:23:50.358Z,35.97
2019-06-08T13:26:24.876Z,35.82
2019-06-08T13:28:47.546Z,34.17
2019-06-08T13:31:18.226Z,33.86
2019-06-08T13:33:44.616Z,32.76
2019-06-08T13:36:12.814Z,36.43
2019-06-08T13:38:41.008Z,37.71
2019-06-08T13:41:09.306Z,34.56
2019-06-08T13:43:40.315Z,38.25
2019-06-08T13:46:08.208Z,37.50
2019-06-08T13:48:37.595Z,37.30
2019-06-08T13:51:05.894Z,34.11
2019-06-08T13:53:34.086Z,36.29
2019-06-08T13:56:02.270Z,36.36
2019-06-08T13:58:33.408Z,32.87
2019-06-08T14:01:00.436Z,31.70
2019-06-08T14:03:28.651Z,32.95
2019-06-08T14:05:56.844Z,32.79
2019-06-08T14:08:29.979Z,29.70
2019-06-08T14:11:00.475Z,33.96
2019-06-08T14:13:29.138Z,33.49
2019-06-08T14:15:54.537Z,30.39
2019-06-08T14:18:26.486Z,34.59
2019-06-08T14:20:54.671Z,32.66
2019-06-08T14:23:23.135Z,32.49
2019-06-08T14:25:56.656Z,34.90
2019-06-08T14:28:23.286Z,28.62
2019-06-08T14:30:52.249Z,32.59
2019-06-08T14:33:25.253Z,29.92
2019-06-08T14:35:50.337Z,35.17
2019-06-08T14:38:23.850Z,36.05
2019-06-08T14:40:48.459Z,29.59
2019-06-08T14:43:17.625Z,35.93
2019-06-08T14:45:46.598Z,35.95
2019-06-08T14:48:14.944Z,35.06
2019-06-08T14:50:43.140Z,30.07
2019-06-08T14:53:11.292Z,28.82
2019-06-08T14:55:39.519Z,28.52
2019-06-08T14:58:08.381Z,28.36
2019-06-08T15:00:38.103Z,26.64
2019-06-08T15:03:07.689Z,29.30
2019-06-08T15:05:35.550Z,26.92
2019-06-08T15:08:03.862Z,34.00
2019-06-08T15:10:32.027Z,26.40
2019-06-08T15:13:00.225Z,30.50
2019-06-08T15:15:30.777Z,26.74
2019-06-08T15:17:58.486Z,30.53
2019-06-08T15:20:26.751Z,30.44
2019-06-08T15:22:55.029Z,31.09
2019-06-08T15:25:23.253Z,29.85
2019-06-08T15:27:51.445Z,29.25
2019-06-08T15:30:21.152Z,31.37
2019-06-08T15:32:49.843Z,36.17
2019-06-08T15:35:18.205Z,27.19
2019-06-08T15:37:47.896Z,28.11
2019-06-08T15:40:17.689Z,27.47
2019-06-08T15:42:47.981Z,29.24
2019-06-08T15:45:18.166Z,29.81
2019-06-08T15:47:48.017Z,30.66
2019-06-08T15:50:17.972Z,30.81
2019-06-08T15:52:47.979Z,28.17
2019-06-08T15:55:15.776Z,29.34
2019-06-08T15:57:43.983Z,32.16
2019-06-08T16:00:12.470Z,28.72
2019-06-08T16:02:40.759Z,35.13
2019-06-08T16:05:09.084Z,36.17
2019-06-08T16:07:37.318Z,26.54
2019-06-08T16:10:06.351Z,33.04
2019-06-08T16:12:35.133Z,31.51
2019-06-08T16:15:03.317Z,30.32
2019-06-08T16:17:31.489Z,31.57
2019-06-08T16:19:59.819Z,27.26
2019-06-08T16:22:27.975Z,32.78
2019-06-08T16:24:56.498Z,33.90
2019-06-08T16:27:25.734Z,37.45
2019-06-08T16:29:53.982Z,27.89
2019-06-08T16:32:22.394Z,30.50
2019-06-08T16:34:50.834Z,30.89
2019-06-08T16:37:19.160Z,31.08
2019-06-08T16:39:47.412Z,28.70
2019-06-08T16:42:15.596Z,36.42
2019-06-08T16:44:43.841Z,33.47
2019-06-08T16:47:12.225Z,29.01
2019-06-08T16:49:40.569Z,29.84
2019-06-08T16:52:08.802Z,33.20
2019-06-08T16:54:37.536Z,31.10
2019-06-08T16:57:10.586Z,32.76
2019-06-08T16:59:36.656Z,32.70
2019-06-08T17:02:04.894Z,34.03
2019-06-08T17:04:33.290Z,33.71
2019-06-08T17:07:02.756Z,32.16
2019-06-08T17:09:32.524Z,33.35
2019-06-08T17:12:00.947Z,27.26
2019-06-08T17:14:30.051Z,32.18
2019-06-08T17:16:58.219Z,31.45
2019-06-08T17:19:26.422Z,32.34
2019-06-08T17:21:55.014Z,26.58
2019-06-08T17:24:23.316Z,31.34
2019-06-08T17:26:51.530Z,30.95
2019-06-08T17:29:19.817Z,37.56
2019-06-08T17:31:48.165Z,34.67
2019-06-08T17:34:16.426Z,32.66
2019-06-08T17:36:44.648Z,30.07
2019-06-08T17:39:12.867Z,31.22
2019-06-08T17:41:42.094Z,34.90
2019-06-08T17:44:10.779Z,39.33
2019-06-08T17:46:39.228Z,44.85
2019-06-08T17:49:08.067Z,47.33
2019-06-08T17:51:37.307Z,48.27
2019-06-08T17:54:05.652Z,47.90
2019-06-08T17:56:35.010Z,47.25
2019-06-08T17:59:03.625Z,43.86
2019-06-08T18:01:33.895Z,42.67
2019-06-08T18:04:01.894Z,40.06
2019-06-08T18:06:30.104Z,41.92
2019-06-08T18:08:59.097Z,39.54
2019-06-08T18:11:27.976Z,40.57
2019-06-08T18:13:58.822Z,38.99
2019-06-08T18:16:27.762Z,41.46
2019-06-08T18:18:57.589Z,39.85
2019-06-08T18:21:25.443Z,39.02
2019-06-08T18:23:53.663Z,38.71
2019-06-08T18:26:21.801Z,39.77
2019-06-08T18:28:50.025Z,38.98
2019-06-08T18:31:18.244Z,39.48
2019-06-08T18:33:50.088Z,38.98
2019-06-08T18:36:17.418Z,41.04
2019-06-08T18:38:48.365Z,42.56
2019-06-08T18:41:17.531Z,42.93
2019-06-08T18:43:46.108Z,42.33
2019-06-08T18:46:14.610Z,44.75
2019-06-08T18:48:44.565Z,45.77
2019-06-08T18:51:13.173Z,41.45
2019-06-08T18:54:01.513Z,42.75
2019-06-08T18:56:10.711Z,40.97
2019-06-08T18:58:39.710Z,40.03
2019-06-08T19:01:08.777Z,40.44
2019-06-08T19:03:40.311Z,40.58
2019-06-08T19:06:10.166Z,40.93
2019-06-08T19:08:39.197Z,41.46
2019-06-08T19:11:05.074Z,42.59
2019-06-08T19:13:34.227Z,44.81
2019-06-08T19:16:02.417Z,43.17
2019-06-08T19:18:30.680Z,42.80
2019-06-08T19:20:59.080Z,43.95
2019-06-08T19:23:27.977Z,44.13
2019-06-08T19:25:57.808Z,45.26
2019-06-08T19:28:35.588Z,48.92
2019-06-08T19:30:58.158Z,49.80
2019-06-08T19:33:28.042Z,46.21
2019-06-08T19:35:58.195Z,48.89
2019-06-08T19:38:27.865Z,50.82
2019-06-08T19:40:57.302Z,50.94
2019-06-08T19:43:27.754Z,46.66
2019-06-08T19:45:57.833Z,47.91
2019-06-08T19:48:29.803Z,46.12
2019-06-08T19:50:55.310Z,48.09
2019-06-08T19:53:23.666Z,45.70
2019-06-08T19:55:53.872Z,44.46
2019-06-08T19:58:21.941Z,43.48
2019-06-08T20:00:54.229Z,43.28
2019-06-08T20:03:19.440Z,43.25
2019-06-08T20:05:50.650Z,43.25
2019-06-08T20:08:17.644Z,43.45
2019-06-08T20:10:48.067Z,43.16
2019-06-08T20:13:16.087Z,49.27
2019-06-08T20:15:50.668Z,44.29
2019-06-08T20:18:17.074Z,45.71
2019-06-08T20:20:45.739Z,44.11
2019-06-08T20:23:13.759Z,43.82
2019-06-08T20:25:45.146Z,43.90
2019-06-08T20:28:13.469Z,43.92
2019-06-08T20:30:42.267Z,49.25
2019-06-08T20:33:10.525Z,45.34
2019-06-08T20:35:38.886Z,45.17
2019-06-08T20:38:08.793Z,45.08
2019-06-08T20:40:38.280Z,45.28
2019-06-08T20:43:07.200Z,45.85
2019-06-08T20:45:37.458Z,46.24
2019-06-08T20:48:05.192Z,45.79
2019-06-08T20:50:33.494Z,51.61
2019-06-08T20:53:01.672Z,48.04
2019-06-08T20:55:30.046Z,46.83
2019-06-08T20:57:58.268Z,49.84
2019-06-08T21:00:26.500Z,55.80
2019-06-08T21:02:56.598Z,47.19
2019-06-08T21:05:24.607Z,46.90
2019-06-08T21:07:54.478Z,47.08
2019-06-08T21:10:24.495Z,47.88
2019-06-08T21:12:52.977Z,47.08
2019-06-08T21:15:21.783Z,47.96
2019-06-08T21:17:51.934Z,48.97
2019-06-08T21:20:20.002Z,54.82
2019-06-08T21:22:50.913Z,47.35
2019-06-08T21:25:18.495Z,46.88
2019-06-08T21:27:48.485Z,47.79
2019-06-08T21:30:23.963Z,46.87
2019-06-08T21:32:50.292Z,47.21
2019-06-08T21:35:18.388Z,47.25
2019-06-08T21:37:50.673Z,47.15
2019-06-08T21:40:17.580Z,47.36
2019-06-08T21:42:48.961Z,49.05
2019-06-08T21:45:15.807Z,49.82
2019-06-08T21:47:47.185Z,48.54
2019-06-08T21:50:14.742Z,49.18
2019-06-08T21:52:42.958Z,50.08
2019-06-08T21:55:11.196Z,48.24
2019-06-08T21:57:39.325Z,48.18
2019-06-08T22:00:27.103Z,48.61
2019-06-08T22:02:40.060Z,50.03
2019-06-08T22:05:08.840Z,48.15
2019-06-08T22:07:37.754Z,50.50
2019-06-08T22:10:07.439Z,48.26
2019-06-08T22:12:39.486Z,48.45
2019-06-08T22:15:07.478Z,48.74
2019-06-08T22:17:38.107Z,48.26
2019-06-08T22:20:08.000Z,48.34
2019-06-08T22:22:37.828Z,48.51
2019-06-08T22:25:08.281Z,56.61
2019-06-08T22:27:38.164Z,49.91
2019-06-08T22:30:13.940Z,51.04
2019-06-08T22:32:38.497Z,51.70
2019-06-08T22:35:08.028Z,49.07
2019-06-08T22:37:38.052Z,48.70
2019-06-08T22:40:08.163Z,48.69
2019-06-08T22:42:37.452Z,52.08
2019-06-08T22:45:08.295Z,52.08
2019-06-08T22:47:35.349Z,49.33
2019-06-08T22:50:03.801Z,49.07
2019-06-08T22:52:31.917Z,49.55
2019-06-08T22:55:05.202Z,49.55
2019-06-08T22:57:29.911Z,51.07
2019-06-08T23:00:00.093Z,50.75
2019-06-08T23:02:27.988Z,49.08
2019-06-08T23:04:56.288Z,48.60
2019-06-08T23:07:29.803Z,49.09
2019-06-08T23:09:56.023Z,48.90
2019-06-08T23:12:24.366Z,48.84
2019-06-08T23:14:52.594Z,50.82
2019-06-08T23:17:20.777Z,49.85
2019-06-08T23:19:48.905Z,50.90
2019-06-08T23:22:17.738Z,51.61
2019-06-08T23:24:47.725Z,50.78
2019-06-08T23:27:17.590Z,50.91
2019-06-08T23:29:47.519Z,62.31
2019-06-08T23:32:18.087Z,51.77
2019-06-08T23:34:47.829Z,51.29
2019-06-08T23:37:18.126Z,62.62
2019-06-08T23:39:47.061Z,49.03
2019-06-08T23:42:17.717Z,50.30
2019-06-08T23:44:47.173Z,50.18
2019-06-08T23:47:15.177Z,49.18
2019-06-08T23:49:43.379Z,48.44
2019-06-08T23:52:11.861Z,49.83
2019-06-08T23:54:40.038Z,53.78
2019-06-08T23:57:10.075Z,49.08
2019-06-08T23:59:38.229Z,49.24
